createdAt,value
2023-01-01T00:00:23.434Z,17.10
2023-01-01T00:01:23.284Z,17.07
2023-01-01T00:02:23.281Z,17.09
2023-01-01T00:03:23.218Z,17.12
2023-01-01T00:04:23.095Z,17.00
2023-01-01T00:05:23.034Z,17.15
2023-01-01T00:06:22.986Z,17.07
2023-01-01T00:07:22.911Z,17.17
2023-01-01T00:08:22.846Z,17.14
2023-01-01T00:09:22.791Z,17.03
2023-01-01T00:10:22.734Z,17.07
2023-01-01T00:11:22.663Z,17.09
2023-01-01T00:12:22.598Z,17.07
2023-01-01T00:13:22.547Z,17.15
2023-01-01T00:14:22.496Z,17.07
2023-01-01T00:15:22.418Z,16.98
2023-01-01T00:16:22.390Z,17.07
2023-01-01T00:17:22.323Z,17.02
2023-01-01T00:18:22.227Z,17.00
2023-01-01T00:19:22.167Z,16.99
2023-01-01T00:20:22.107Z,17.03
2023-01-01T00:21:22.044Z,17.03
2023-01-01T00:22:53.183Z,17.05
2023-01-01T00:23:21.924Z,17.00
2023-01-01T00:24:21.859Z,17.10
2023-01-01T00:25:21.803Z,17.07
2023-01-01T00:26:21.744Z,17.14
2023-01-01T00:27:21.675Z,17.05
2023-01-01T00:28:21.611Z,17.09
2023-01-01T00:29:21.550Z,17.10
2023-01-01T00:30:21.509Z,17.12
2023-01-01T00:31:21.481Z,17.07
2023-01-01T00:32:22.991Z,17.12
2023-01-01T00:33:21.302Z,17.12
2023-01-01T00:34:21.251Z,17.14
2023-01-01T00:35:21.178Z,17.00
2023-01-01T00:36:21.114Z,17.02
2023-01-01T00:37:21.060Z,17.03
2023-01-01T00:38:20.990Z,16.99
2023-01-01T00:39:20.936Z,16.99
2023-01-01T00:40:20.899Z,16.96
2023-01-01T00:41:20.812Z,17.03
2023-01-01T00:42:20.758Z,17.03
2023-01-01T00:43:20.682Z,17.05
2023-01-01T00:44:20.621Z,16.96
2023-01-01T00:45:22.396Z,17.00
2023-01-01T00:46:20.536Z,16.91
2023-01-01T00:47:20.434Z,16.91
2023-01-01T00:48:20.373Z,16.91
2023-01-01T00:49:20.313Z,17.00
2023-01-01T00:50:20.280Z,17.03
2023-01-01T00:51:20.199Z,16.99
2023-01-01T00:52:20.129Z,16.99
2023-01-01T00:53:20.062Z,17.03
2023-01-01T00:54:20.002Z,17.17
2023-01-01T00:55:19.947Z,17.03
2023-01-01T00:56:19.950Z,17.00
2023-01-01T00:57:19.880Z,17.02
2023-01-01T00:58:19.782Z,17.00
2023-01-01T00:59:23.857Z,16.99
2023-01-01T01:00:19.626Z,16.95
2023-01-01T01:01:19.655Z,17.00
2023-01-01T01:02:19.673Z,16.98
2023-01-01T01:03:19.460Z,17.03
2023-01-01T01:04:19.410Z,17.05
2023-01-01T01:05:19.326Z,17.05
2023-01-01T01:06:19.263Z,17.10
2023-01-01T01:07:19.205Z,17.07
2023-01-01T01:08:19.142Z,16.90
2023-01-01T01:09:19.072Z,16.95
2023-01-01T01:10:19.016Z,16.91
2023-01-01T01:11:18.954Z,16.91
2023-01-01T01:12:19.169Z,16.96
2023-01-01T01:13:18.832Z,16.88
2023-01-01T01:14:18.768Z,16.87
2023-01-01T01:15:18.712Z,16.88
2023-01-01T01:16:18.687Z,16.98
2023-01-01T01:17:18.594Z,17.00
2023-01-01T01:18:18.512Z,17.00
2023-01-01T01:19:18.462Z,17.02
2023-01-01T01:20:18.400Z,17.03
2023-01-01T01:21:18.335Z,17.00
2023-01-01T01:22:21.523Z,16.95
2023-01-01T01:23:18.218Z,16.98
2023-01-01T01:24:18.152Z,16.98
2023-01-01T01:25:18.106Z,16.99
2023-01-01T01:26:18.017Z,17.00
2023-01-01T01:27:17.969Z,16.96
2023-01-01T01:28:17.895Z,16.98
2023-01-01T01:29:17.831Z,16.99
2023-01-01T01:30:17.787Z,16.99
2023-01-01T01:31:17.840Z,17.02
2023-01-01T01:32:17.647Z,17.03
2023-01-01T01:33:17.587Z,17.05
2023-01-01T01:34:19.956Z,17.00
2023-01-01T01:35:17.463Z,17.12
2023-01-01T01:36:17.397Z,17.06
2023-01-01T01:37:17.354Z,17.00
2023-01-01T01:38:17.288Z,17.12
2023-01-01T01:39:17.218Z,17.14
2023-01-01T01:40:17.160Z,17.10
2023-01-01T01:41:27.413Z,17.15
2023-01-01T01:42:17.045Z,17.06
2023-01-01T01:43:16.969Z,17.02
2023-01-01T01:44:16.957Z,17.10
2023-01-01T01:45:16.844Z,17.12
2023-01-01T01:46:16.827Z,17.06
2023-01-01T01:47:16.725Z,17.03
2023-01-01T01:48:16.659Z,17.03
2023-01-01T01:49:16.597Z,17.05
2023-01-01T01:50:16.539Z,17.12
2023-01-01T01:51:16.495Z,17.15
2023-01-01T01:52:16.425Z,17.03
2023-01-01T01:53:16.388Z,16.96
2023-01-01T01:54:16.294Z,17.10
2023-01-01T01:55:16.223Z,17.00
2023-01-01T01:56:16.166Z,17.05
2023-01-01T01:57:16.108Z,17.10
2023-01-01T01:58:16.046Z,17.00
2023-01-01T01:59:15.980Z,17.12
2023-01-01T02:00:15.926Z,16.99
2023-01-01T02:01:15.947Z,16.98
2023-01-01T02:02:15.981Z,17.14
2023-01-01T02:03:15.766Z,17.00
2023-01-01T02:04:15.677Z,16.99
2023-01-01T02:05:15.606Z,17.02
2023-01-01T02:06:15.548Z,17.17
2023-01-01T02:07:15.483Z,17.03
2023-01-01T02:08:15.430Z,17.10
2023-01-01T02:09:15.367Z,17.12
2023-01-01T02:10:15.298Z,17.06
2023-01-01T02:11:21.612Z,17.15
2023-01-01T02:12:15.186Z,17.09
2023-01-01T02:13:15.118Z,17.02
2023-01-01T02:14:15.049Z,17.09
2023-01-01T02:15:14.996Z,17.09
2023-01-01T02:16:14.966Z,17.09
2023-01-01T02:17:14.866Z,17.10
2023-01-01T02:18:14.808Z,17.00
2023-01-01T02:19:14.752Z,17.00
2023-01-01T02:20:14.682Z,17.10
2023-01-01T02:21:14.619Z,17.12
2023-01-01T02:22:14.560Z,17.10
2023-01-01T02:23:14.504Z,17.03
2023-01-01T02:24:14.436Z,17.07
2023-01-01T02:25:14.380Z,17.17
2023-01-01T02:26:14.319Z,17.07
2023-01-01T02:27:14.242Z,17.12
2023-01-01T02:28:14.190Z,17.07
2023-01-01T02:29:14.125Z,17.10
2023-01-01T02:30:14.085Z,17.10
2023-01-01T02:31:18.205Z,17.00
2023-01-01T02:32:13.947Z,17.09
2023-01-01T02:33:13.886Z,17.14
2023-01-01T02:34:13.829Z,17.10
2023-01-01T02:35:13.754Z,17.10
2023-01-01T02:36:13.704Z,17.09
2023-01-01T02:37:13.639Z,17.00
2023-01-01T02:38:13.581Z,17.09
2023-01-01T02:39:13.513Z,17.14
2023-01-01T02:40:13.451Z,17.00
2023-01-01T02:41:13.385Z,16.99
2023-01-01T02:42:13.333Z,16.98
2023-01-01T02:43:13.284Z,17.00
2023-01-01T02:44:13.233Z,16.98
2023-01-01T02:45:13.131Z,16.99
2023-01-01T02:46:34.077Z,16.88
2023-01-01T02:47:13.026Z,16.96
2023-01-01T02:48:12.952Z,16.96
2023-01-01T02:49:12.912Z,16.98
2023-01-01T02:50:12.858Z,17.00
2023-01-01T02:51:12.760Z,16.96
2023-01-01T02:52:12.700Z,16.95
2023-01-01T02:53:12.645Z,16.91
2023-01-01T02:54:12.584Z,16.88
2023-01-01T02:55:12.515Z,16.85
2023-01-01T02:56:12.465Z,16.90
2023-01-01T02:57:12.419Z,16.90
2023-01-01T02:58:12.396Z,16.91
2023-01-01T02:59:12.290Z,16.99
2023-01-01T03:00:12.206Z,16.88
2023-01-01T03:01:12.248Z,16.90
2023-01-01T03:02:12.193Z,16.81
2023-01-01T03:03:12.160Z,16.80
2023-01-01T03:04:11.965Z,16.80
2023-01-01T03:05:11.892Z,16.84
2023-01-01T03:06:11.848Z,16.88
2023-01-01T03:07:11.776Z,16.91
2023-01-01T03:08:11.708Z,16.90
2023-01-01T03:09:11.648Z,16.81
2023-01-01T03:10:11.593Z,16.88
2023-01-01T03:11:11.531Z,16.78
2023-01-01T03:12:11.485Z,16.80
2023-01-01T03:13:11.401Z,16.80
2023-01-01T03:14:11.337Z,16.66
2023-01-01T03:15:11.283Z,16.75
2023-01-01T03:16:11.241Z,16.73
2023-01-01T03:17:11.160Z,16.72
2023-01-01T03:18:11.097Z,16.73
2023-01-01T03:19:11.353Z,16.73
2023-01-01T03:20:10.972Z,16.77
2023-01-01T03:21:31.904Z,16.70
2023-01-01T03:22:10.844Z,16.75
2023-01-01T03:23:10.780Z,16.81
2023-01-01T03:24:10.720Z,16.65
2023-01-01T03:25:10.659Z,16.72
2023-01-01T03:26:10.600Z,16.66
2023-01-01T03:27:10.553Z,16.66
2023-01-01T03:28:10.475Z,16.50
2023-01-01T03:29:10.415Z,16.59
2023-01-01T03:30:10.351Z,16.57
2023-01-01T03:31:10.323Z,16.67
2023-01-01T03:32:10.228Z,16.65
2023-01-01T03:33:10.156Z,16.65
2023-01-01T03:34:10.097Z,16.62
2023-01-01T03:35:10.045Z,16.55
2023-01-01T03:36:09.973Z,16.59
2023-01-01T03:37:09.920Z,16.62
2023-01-01T03:38:09.852Z,16.72
2023-01-01T03:39:09.788Z,16.70
2023-01-01T03:40:09.721Z,16.73
2023-01-01T03:41:09.678Z,16.75
2023-01-01T03:42:09.602Z,16.66
2023-01-01T03:43:09.544Z,16.59
2023-01-01T03:44:09.482Z,16.59
2023-01-01T03:45:09.416Z,16.66
2023-01-01T03:46:09.377Z,16.65
2023-01-01T03:47:09.292Z,16.63
2023-01-01T03:48:09.230Z,16.62
2023-01-01T03:49:09.166Z,16.67
2023-01-01T03:50:09.105Z,16.59
2023-01-01T03:51:09.043Z,16.63
2023-01-01T03:52:08.987Z,16.66
2023-01-01T03:53:08.924Z,16.51
2023-01-01T03:54:08.855Z,16.55
2023-01-01T03:55:08.796Z,16.54
2023-01-01T03:56:08.785Z,16.47
2023-01-01T03:57:08.667Z,16.41
2023-01-01T03:58:08.611Z,16.47
2023-01-01T03:59:08.544Z,16.48
2023-01-01T04:00:08.489Z,16.50
2023-01-01T04:01:08.467Z,16.44
2023-01-01T04:02:08.502Z,16.44
2023-01-01T04:03:08.392Z,16.48
2023-01-01T04:04:08.240Z,16.54
2023-01-01T04:05:08.177Z,16.54
2023-01-01T04:06:08.110Z,16.50
2023-01-01T04:07:15.047Z,16.44
2023-01-01T04:08:07.994Z,16.47
2023-01-01T04:09:07.934Z,16.51
2023-01-01T04:10:07.860Z,16.40
2023-01-01T04:11:07.804Z,16.44
2023-01-01T04:12:07.753Z,16.47
2023-01-01T04:13:07.698Z,16.36
2023-01-01T04:14:07.622Z,16.36
2023-01-01T04:15:07.553Z,16.47
2023-01-01T04:16:07.526Z,16.42
2023-01-01T04:17:07.439Z,16.40
2023-01-01T04:18:07.377Z,16.50
2023-01-01T04:19:07.300Z,16.45
2023-01-01T04:20:07.239Z,16.41
2023-01-01T04:21:07.174Z,16.54
2023-01-01T04:22:07.116Z,16.45
2023-01-01T04:23:07.051Z,16.45
2023-01-01T04:24:06.995Z,16.45
2023-01-01T04:25:06.932Z,16.47
2023-01-01T04:26:06.866Z,16.47
2023-01-01T04:27:06.803Z,16.47
2023-01-01T04:28:06.741Z,16.60
2023-01-01T04:29:06.683Z,16.51
2023-01-01T04:30:06.616Z,16.54
2023-01-01T04:31:06.558Z,16.55
2023-01-01T04:32:06.494Z,16.50
2023-01-01T04:33:06.427Z,16.50
2023-01-01T04:34:06.367Z,16.41
2023-01-01T04:35:06.305Z,16.42
2023-01-01T04:36:06.262Z,16.50
2023-01-01T04:37:11.402Z,16.45
2023-01-01T04:38:06.136Z,16.47
2023-01-01T04:39:06.068Z,16.48
2023-01-01T04:40:06.012Z,16.45
2023-01-01T04:41:06.037Z,16.47
2023-01-01T04:42:05.872Z,16.54
2023-01-01T04:43:05.812Z,16.45
2023-01-01T04:44:05.748Z,16.48
2023-01-01T04:45:05.689Z,16.48
2023-01-01T04:46:05.650Z,16.47
2023-01-01T04:47:05.566Z,16.40
2023-01-01T04:48:05.516Z,16.45
2023-01-01T04:49:05.432Z,16.47
2023-01-01T04:50:05.383Z,16.47
2023-01-01T04:51:05.308Z,16.45
2023-01-01T04:52:05.248Z,16.52
2023-01-01T04:53:05.191Z,16.40
2023-01-01T04:54:05.127Z,16.45
2023-01-01T04:55:05.066Z,16.50
2023-01-01T04:56:05.001Z,16.45
2023-01-01T04:57:04.969Z,16.44
2023-01-01T04:58:04.875Z,16.47
2023-01-01T04:59:04.813Z,16.50
2023-01-01T05:00:04.757Z,16.48
2023-01-01T05:01:04.815Z,16.45
2023-01-01T05:02:04.719Z,16.40
2023-01-01T05:03:04.587Z,16.44
2023-01-01T05:04:04.508Z,16.41
2023-01-01T05:05:04.454Z,16.42
2023-01-01T05:06:04.379Z,16.41
2023-01-01T05:07:04.326Z,16.42
2023-01-01T05:08:04.267Z,16.42
2023-01-01T05:09:04.192Z,16.40
2023-01-01T05:10:04.133Z,16.42
2023-01-01T05:11:04.065Z,16.47
2023-01-01T05:12:04.006Z,16.42
2023-01-01T05:13:03.951Z,16.45
2023-01-01T05:14:03.884Z,16.47
2023-01-01T05:15:03.818Z,16.42
2023-01-01T05:16:03.811Z,16.47
2023-01-01T05:17:03.696Z,16.44
2023-01-01T05:18:03.630Z,16.52
2023-01-01T05:19:03.579Z,16.50
2023-01-01T05:20:03.507Z,16.50
2023-01-01T05:21:03.445Z,16.44
2023-01-01T05:22:10.140Z,16.44
2023-01-01T05:23:03.321Z,16.52
2023-01-01T05:24:03.265Z,16.54
2023-01-01T05:25:03.200Z,16.47
2023-01-01T05:26:03.139Z,16.51
2023-01-01T05:27:03.071Z,16.42
2023-01-01T05:28:03.012Z,16.42
2023-01-01T05:29:02.955Z,16.36
2023-01-01T05:30:02.903Z,16.27
2023-01-01T05:31:02.832Z,16.23
2023-01-01T05:32:02.827Z,16.17
2023-01-01T05:33:02.702Z,16.17
2023-01-01T05:34:23.624Z,16.22
2023-01-01T05:35:02.577Z,16.17
2023-01-01T05:36:02.512Z,16.23
2023-01-01T05:37:02.451Z,16.29
2023-01-01T05:38:02.394Z,16.29
2023-01-01T05:39:02.327Z,16.23
2023-01-01T05:40:02.279Z,16.23
2023-01-01T05:41:02.201Z,16.27
2023-01-01T05:42:02.155Z,16.33
2023-01-01T05:43:02.077Z,16.29
2023-01-01T05:44:02.022Z,16.25
2023-01-01T05:45:01.952Z,16.30
2023-01-01T05:46:01.911Z,16.26
2023-01-01T05:47:01.837Z,16.33
2023-01-01T05:48:01.771Z,16.29
2023-01-01T05:49:01.707Z,16.27
2023-01-01T05:51:01.584Z,16.36
2023-01-01T05:52:01.524Z,16.32
2023-01-01T05:53:01.459Z,16.32
2023-01-01T05:54:01.407Z,16.41
2023-01-01T05:55:01.331Z,16.33
2023-01-01T05:56:01.276Z,16.37
2023-01-01T05:57:01.210Z,16.27
2023-01-01T05:58:01.164Z,16.27
2023-01-01T05:59:01.086Z,16.32
2023-01-01T06:00:01.021Z,16.33
2023-01-01T06:01:00.984Z,16.36
2023-01-01T06:02:01.077Z,16.30
2023-01-01T06:03:00.840Z,16.29
2023-01-01T06:04:00.919Z,16.27
2023-01-01T06:05:00.715Z,16.32
2023-01-01T06:06:00.656Z,16.23
2023-01-01T06:07:00.593Z,16.17
2023-01-01T06:08:00.526Z,16.14
2023-01-01T06:09:00.464Z,16.14
2023-01-01T06:10:00.415Z,16.18
2023-01-01T06:11:00.343Z,16.14
2023-01-01T06:12:00.289Z,16.07
2023-01-01T06:13:00.209Z,16.13
2023-01-01T06:14:00.182Z,16.22
2023-01-01T06:15:00.114Z,16.01
2023-01-01T06:16:00.042Z,16.13
2023-01-01T06:17:00.133Z,16.10
2023-01-01T06:17:59.925Z,16.11
2023-01-01T06:18:59.850Z,16.10
2023-01-01T06:19:59.779Z,16.11
2023-01-01T06:20:59.713Z,16.18
2023-01-01T06:21:59.652Z,16.07
2023-01-01T06:22:59.624Z,16.17
2023-01-01T06:23:59.540Z,16.14
2023-01-01T06:24:59.467Z,16.16
2023-01-01T06:25:59.403Z,16.26
2023-01-01T06:26:59.339Z,-40.00
2023-01-01T06:27:59.277Z,-40.00
2023-01-01T06:28:59.219Z,-40.00
2023-01-01T06:29:59.153Z,-40.00
2023-01-01T06:30:59.111Z,-40.00
2023-01-01T06:31:59.040Z,-40.00
2023-01-01T06:32:58.975Z,-40.00
2023-01-01T06:33:58.909Z,-40.00
2023-01-01T06:34:58.858Z,-40.00
2023-01-01T06:35:58.793Z,-40.00
2023-01-01T06:37:03.041Z,-40.00
2023-01-01T06:37:58.656Z,-40.00
2023-01-01T06:38:58.613Z,-40.00
2023-01-01T06:39:58.532Z,-40.00
2023-01-01T06:40:58.467Z,-40.00
2023-01-01T06:41:58.407Z,-40.00
2023-01-01T06:42:58.346Z,-40.00
2023-01-01T06:43:58.286Z,-40.00
2023-01-01T06:44:58.221Z,-40.00
2023-01-01T06:45:58.205Z,-40.00
2023-01-01T06:46:58.100Z,-40.00
2023-01-01T06:47:58.040Z,-40.00
2023-01-01T06:48:57.975Z,-40.00
2023-01-01T06:49:57.914Z,-40.00
2023-01-01T06:50:57.848Z,-40.00
2023-01-01T06:51:57.789Z,-40.00
2023-01-01T06:52:57.720Z,-40.00
2023-01-01T06:53:57.663Z,-40.00
2023-01-01T06:54:57.595Z,-40.00
2023-01-01T06:55:57.728Z,-40.00
2023-01-01T06:56:57.470Z,-40.00
2023-01-01T06:57:57.411Z,-40.00
2023-01-01T06:58:57.344Z,-40.00
2023-01-01T06:59:57.296Z,-40.00
2023-01-01T07:00:57.251Z,-40.00
2023-01-01T07:01:57.290Z,-40.00
2023-01-01T07:02:57.236Z,-40.00
2023-01-01T07:03:57.046Z,-40.00
2023-01-01T07:04:57.040Z,-40.00
2023-01-01T07:05:56.915Z,-40.00
2023-01-01T07:06:56.846Z,-40.00
2023-01-01T07:07:56.793Z,-40.00
2023-01-01T07:08:56.725Z,-40.00
2023-01-01T07:09:56.663Z,-40.00
2023-01-01T07:10:56.596Z,-40.00
2023-01-01T07:11:56.538Z,-40.00
2023-01-01T07:12:56.473Z,-40.00
2023-01-01T07:13:56.412Z,-40.00
2023-01-01T07:14:56.352Z,-40.00
2023-01-01T07:15:56.383Z,-40.00
2023-01-01T07:16:56.224Z,-40.00
2023-01-01T07:17:56.174Z,-40.00
2023-01-01T07:18:56.105Z,-40.00
2023-01-01T07:19:56.044Z,-40.00
2023-01-01T07:20:55.978Z,-40.00
2023-01-01T07:21:55.924Z,-40.00
2023-01-01T07:22:55.859Z,-40.00
2023-01-01T07:23:55.786Z,-40.00
2023-01-01T07:24:55.721Z,-40.00
2023-01-01T07:25:55.701Z,-40.00
2023-01-01T07:26:55.599Z,-40.00
2023-01-01T07:27:55.539Z,-40.00
2023-01-01T07:28:59.491Z,-40.00
2023-01-01T07:29:55.415Z,-40.00
2023-01-01T07:30:55.441Z,-40.00
2023-01-01T07:31:55.287Z,-40.00
2023-01-01T07:32:55.229Z,-40.00
2023-01-01T07:33:55.205Z,-40.00
2023-01-01T07:34:55.101Z,-40.00
2023-01-01T07:35:55.041Z,-40.00
2023-01-01T07:36:54.992Z,-40.00
2023-01-01T07:37:54.922Z,-40.00
2023-01-01T07:38:54.859Z,-40.00
2023-01-01T07:39:54.803Z,-40.00
2023-01-01T07:40:54.725Z,-40.00
2023-01-01T07:41:54.668Z,-40.00
2023-01-01T07:42:54.602Z,-40.00
2023-01-01T07:43:54.555Z,-40.00
2023-01-01T07:44:54.477Z,-40.00
2023-01-01T07:45:54.457Z,-40.00
2023-01-01T07:46:54.355Z,-40.00
2023-01-01T07:47:54.295Z,-40.00
2023-01-01T07:48:54.247Z,-40.00
2023-01-01T07:49:54.169Z,-40.00
2023-01-01T07:50:54.105Z,-40.00
2023-01-01T07:51:54.050Z,-40.00
2023-01-01T07:52:53.981Z,-40.00
2023-01-01T07:53:53.932Z,-40.00
2023-01-01T07:54:53.883Z,-40.00
2023-01-01T07:55:53.796Z,-40.00
2023-01-01T07:56:53.737Z,-40.00
2023-01-01T07:57:53.760Z,-40.00
2023-01-01T07:58:53.602Z,-40.00
2023-01-01T07:59:53.548Z,-40.00
2023-01-01T08:00:53.481Z,-40.00
2023-01-01T08:01:53.521Z,-40.00
2023-01-01T08:02:53.533Z,-40.00
2023-01-01T08:03:53.345Z,-40.00
2023-01-01T08:04:53.230Z,-40.00
2023-01-01T08:05:53.170Z,-40.00
2023-01-01T08:06:53.105Z,-40.00
2023-01-01T08:07:53.046Z,-40.00
2023-01-01T08:08:53.024Z,-40.00
2023-01-01T08:09:52.926Z,-40.00
2023-01-01T08:10:52.878Z,-40.00
2023-01-01T08:11:52.809Z,-40.00
2023-01-01T08:12:52.731Z,-40.00
2023-01-01T08:13:52.678Z,-40.00
2023-01-01T08:14:52.610Z,-40.00
2023-01-01T08:15:52.591Z,-40.00
2023-01-01T08:16:52.495Z,-40.00
2023-01-01T08:17:52.440Z,-40.00
2023-01-01T08:18:52.361Z,-40.00
2023-01-01T08:19:52.312Z,-40.00
2023-01-01T08:20:52.235Z,-40.00
2023-01-01T08:21:52.175Z,-40.00
2023-01-01T08:22:52.114Z,-40.00
2023-01-01T08:23:52.051Z,-40.00
2023-01-01T08:24:51.988Z,-40.00
2023-01-01T08:25:51.927Z,-40.00
2023-01-01T08:26:51.860Z,-40.00
2023-01-01T08:27:51.804Z,-40.00
2023-01-01T08:28:57.002Z,-40.00
2023-01-01T08:29:51.686Z,-40.00
2023-01-01T08:30:51.614Z,-40.00
2023-01-01T08:31:51.558Z,-40.00
2023-01-01T08:32:51.495Z,-40.00
2023-01-01T08:33:51.440Z,-40.00
2023-01-01T08:34:51.372Z,-40.00
2023-01-01T08:35:54.317Z,-40.00
2023-01-01T08:36:51.242Z,-40.00
2023-01-01T08:37:51.190Z,-40.00
2023-01-01T08:38:51.116Z,-40.00
2023-01-01T08:39:51.072Z,-40.00
2023-01-01T08:40:50.999Z,-40.00
2023-01-01T08:41:50.933Z,-40.00
2023-01-01T08:42:50.867Z,-40.00
2023-01-01T08:43:50.820Z,-40.00
2023-01-01T08:44:50.742Z,-40.00
2023-01-01T08:45:50.695Z,-40.00
2023-01-01T08:46:50.657Z,-40.00
2023-01-01T08:47:50.564Z,-40.00
2023-01-01T08:48:50.497Z,-40.00
2023-01-01T08:49:50.440Z,-40.00
2023-01-01T08:50:50.377Z,-40.00
2023-01-01T08:51:50.325Z,-40.00
2023-01-01T08:52:50.248Z,-40.00
2023-01-01T08:53:51.437Z,-40.00
2023-01-01T08:54:50.124Z,-40.00
2023-01-01T08:55:50.069Z,-40.00
2023-01-01T08:56:50.020Z,-40.00
2023-01-01T08:57:49.940Z,-40.00
2023-01-01T08:58:49.897Z,-40.00
2023-01-01T08:59:49.820Z,-40.00
2023-01-01T09:00:49.753Z,-40.00
2023-01-01T09:01:49.880Z,-40.00
2023-01-01T09:02:49.731Z,-40.00
2023-01-01T09:03:49.567Z,-40.00
2023-01-01T09:04:49.517Z,-40.00
2023-01-01T09:05:49.448Z,-40.00
2023-01-01T09:06:49.386Z,-40.00
2023-01-01T09:07:49.343Z,-40.00
2023-01-01T09:08:49.262Z,-40.00
2023-01-01T09:09:49.199Z,-40.00
2023-01-01T09:10:49.130Z,-40.00
2023-01-01T09:11:49.075Z,-40.00
2023-01-01T09:12:49.012Z,-40.00
2023-01-01T09:13:48.953Z,-40.00
2023-01-01T09:14:48.884Z,-40.00
2023-01-01T09:15:48.894Z,-40.00
2023-01-01T09:16:48.817Z,-40.00
2023-01-01T09:17:48.702Z,-40.00
2023-01-01T09:18:48.649Z,-40.00
2023-01-01T09:19:48.580Z,-40.00
2023-01-01T09:20:48.518Z,-40.00
2023-01-01T09:21:48.456Z,-40.00
2023-01-01T09:22:48.392Z,-40.00
2023-01-01T09:23:48.331Z,-40.00
2023-01-01T09:24:48.266Z,-40.00
2023-01-01T09:25:48.206Z,-40.00
2023-01-01T09:26:48.148Z,-40.00
2023-01-01T09:27:48.098Z,-40.00
2023-01-01T09:28:48.027Z,-40.00
2023-01-01T09:29:47.985Z,-40.00
2023-01-01T09:30:47.901Z,-40.00
2023-01-01T09:31:47.910Z,-40.00
2023-01-01T09:32:47.774Z,-40.00
2023-01-01T09:33:47.719Z,-40.00
2023-01-01T09:34:52.256Z,-40.00
2023-01-01T09:35:47.610Z,-40.00
2023-01-01T09:36:47.550Z,-40.00
2023-01-01T09:37:47.467Z,-40.00
2023-01-01T09:38:47.401Z,-40.00
2023-01-01T09:39:47.346Z,-40.00
2023-01-01T09:40:51.069Z,-40.00
2023-01-01T09:41:47.219Z,-40.00
2023-01-01T09:42:47.156Z,-40.00
2023-01-01T09:43:47.096Z,-40.00
2023-01-01T09:44:47.084Z,-40.00
2023-01-01T09:45:47.017Z,-40.00
2023-01-01T09:46:46.910Z,-40.00
2023-01-01T09:47:46.853Z,-40.00
2023-01-01T09:48:46.784Z,-40.00
2023-01-01T09:49:46.732Z,-40.00
2023-01-01T09:50:46.698Z,-40.00
2023-01-01T09:51:51.239Z,-40.00
2023-01-01T09:52:46.547Z,-40.00
2023-01-01T09:53:46.480Z,-40.00
2023-01-01T09:54:46.417Z,-40.00
2023-01-01T09:55:46.356Z,-40.00
2023-01-01T09:56:46.294Z,-40.00
2023-01-01T09:57:46.235Z,-40.00
2023-01-01T09:58:46.174Z,-40.00
2023-01-01T09:59:46.113Z,-40.00
2023-01-01T10:00:46.110Z,-40.00
2023-01-01T10:01:46.100Z,-40.00
2023-01-01T10:02:51.510Z,-40.00
2023-01-01T10:03:45.895Z,-40.00
2023-01-01T10:04:45.819Z,-40.00
2023-01-01T10:05:45.747Z,-40.00
2023-01-01T10:06:45.680Z,-40.00
2023-01-01T10:07:45.620Z,-40.00
2023-01-01T10:08:45.560Z,-40.00
2023-01-01T10:09:45.500Z,-40.00
2023-01-01T10:10:45.439Z,-40.00
2023-01-01T10:11:45.378Z,-40.00
2023-01-01T10:12:45.310Z,-40.00
2023-01-01T10:13:45.256Z,-40.00
2023-01-01T10:14:45.188Z,-40.00
2023-01-01T10:15:45.127Z,-40.00
2023-01-01T10:16:45.098Z,-40.00
2023-01-01T10:17:45.004Z,-40.00
2023-01-01T10:18:44.943Z,-40.00
2023-01-01T10:19:44.887Z,-40.00
2023-01-01T10:20:44.832Z,-40.00
2023-01-01T10:21:47.104Z,-40.00
2023-01-01T10:22:44.717Z,-40.00
2023-01-01T10:23:44.643Z,-40.00
2023-01-01T10:24:44.577Z,-40.00
2023-01-01T10:25:44.521Z,-40.00
2023-01-01T10:26:44.456Z,-40.00
2023-01-01T10:27:44.393Z,-40.00
2023-01-01T10:28:44.330Z,-40.00
2023-01-01T10:29:44.272Z,-40.00
2023-01-01T10:30:44.208Z,-40.00
2023-01-01T10:31:44.185Z,-40.00
2023-01-01T10:32:44.124Z,-40.00
2023-01-01T10:33:44.024Z,-40.00
2023-01-01T10:34:43.964Z,-40.00
2023-01-01T10:35:43.907Z,-40.00
2023-01-01T10:36:43.845Z,-40.00
2023-01-01T10:37:43.785Z,-40.00
2023-01-01T10:38:43.733Z,-40.00
2023-01-01T10:39:43.666Z,-40.00
2023-01-01T10:40:43.597Z,-40.00
2023-01-01T10:41:43.536Z,-40.00
2023-01-01T10:42:43.476Z,-40.00
2023-01-01T10:43:43.414Z,-40.00
2023-01-01T10:44:43.366Z,-40.00
2023-01-01T10:45:43.318Z,-40.00
2023-01-01T10:46:43.231Z,-40.00
2023-01-01T10:47:43.178Z,-40.00
2023-01-01T10:48:43.117Z,-40.00
2023-01-01T10:49:43.083Z,-40.00
2023-01-01T10:50:43.000Z,-40.00
2023-01-01T10:51:42.924Z,-40.00
2023-01-01T10:52:42.874Z,-40.00
2023-01-01T10:53:42.801Z,-40.00
2023-01-01T10:54:42.741Z,-40.00
2023-01-01T10:55:42.746Z,-40.00
2023-01-01T10:56:42.621Z,-40.00
2023-01-01T10:57:42.556Z,-40.00
2023-01-01T10:58:42.498Z,-40.00
2023-01-01T10:59:45.544Z,-40.00
2023-01-01T11:00:42.384Z,-40.00
2023-01-01T11:01:42.463Z,-40.00
2023-01-01T11:02:42.400Z,-40.00
2023-01-01T11:03:42.189Z,-40.00
2023-01-01T11:04:42.134Z,-40.00
2023-01-01T11:05:42.065Z,-40.00
2023-01-01T11:06:42.013Z,-40.00
2023-01-01T11:07:41.943Z,-40.00
2023-01-01T11:08:41.886Z,-40.00
2023-01-01T11:09:48.064Z,-40.00
2023-01-01T11:10:41.762Z,-40.00
2023-01-01T11:11:41.698Z,-40.00
2023-01-01T11:13:08.573Z,-40.00
2023-01-01T11:13:41.578Z,-40.00
2023-01-01T11:14:41.533Z,-40.00
2023-01-01T11:15:41.483Z,-40.00
2023-01-01T11:16:41.498Z,-40.00
2023-01-01T11:17:41.346Z,-40.00
2023-01-01T11:18:41.290Z,-40.00
2023-01-01T11:19:44.409Z,-40.00
2023-01-01T11:20:41.153Z,-40.00
2023-01-01T11:21:41.086Z,-40.00
2023-01-01T11:22:41.026Z,-40.00
2023-01-01T11:23:40.967Z,-40.00
2023-01-01T11:24:40.902Z,-40.00
2023-01-01T11:25:40.840Z,-40.00
2023-01-01T11:26:40.780Z,-40.00
2023-01-01T11:27:40.721Z,-40.00
2023-01-01T11:28:40.668Z,-40.00
2023-01-01T11:29:40.601Z,-40.00
2023-01-01T11:30:40.583Z,-40.00
2023-01-01T11:31:40.475Z,-40.00
2023-01-01T11:32:40.445Z,-40.00
2023-01-01T11:33:40.352Z,-40.00
2023-01-01T11:34:40.291Z,-40.00
2023-01-01T11:35:40.227Z,-40.00
2023-01-01T11:36:40.167Z,-40.00
2023-01-01T11:37:40.101Z,-40.00
2023-01-01T11:38:40.046Z,-40.00
2023-01-01T11:39:39.983Z,-40.00
2023-01-01T11:40:39.921Z,-40.00
2023-01-01T11:41:39.863Z,-40.00
2023-01-01T11:42:39.799Z,-40.00
2023-01-01T11:43:39.742Z,-40.00
2023-01-01T11:44:39.680Z,-40.00
2023-01-01T11:45:39.613Z,-40.00
2023-01-01T11:46:39.578Z,-40.00
2023-01-01T11:47:39.499Z,-40.00
2023-01-01T11:48:39.430Z,-40.00
2023-01-01T11:49:39.375Z,-40.00
2023-01-01T11:50:39.320Z,-40.00
2023-01-01T11:51:39.251Z,-40.00
2023-01-01T11:52:39.219Z,-40.00
2023-01-01T11:53:39.122Z,-40.00
2023-01-01T11:54:39.064Z,-40.00
2023-01-01T11:55:39.008Z,-40.00
2023-01-01T11:56:38.946Z,-40.00
2023-01-01T11:57:38.910Z,-40.00
2023-01-01T11:58:38.823Z,-40.00
2023-01-01T11:59:38.763Z,-40.00
2023-01-01T12:00:38.694Z,-40.00
2023-01-01T12:01:38.693Z,-40.00
2023-01-01T12:02:38.622Z,-40.00
2023-01-01T12:03:38.611Z,-40.00
2023-01-01T12:04:38.466Z,-40.00
2023-01-01T12:05:38.397Z,-40.00
2023-01-01T12:06:38.330Z,-40.00
2023-01-01T12:07:38.271Z,-40.00
2023-01-01T12:08:38.223Z,-40.00
2023-01-01T12:09:38.144Z,-40.00
2023-01-01T12:10:38.092Z,-40.00
2023-01-01T12:11:38.023Z,-40.00
2023-01-01T12:12:37.961Z,-40.00
2023-01-01T12:13:37.899Z,-40.00
2023-01-01T12:14:37.851Z,-40.00
2023-01-01T12:15:37.797Z,-40.00
2023-01-01T12:16:37.721Z,-40.00
2023-01-01T12:17:37.671Z,-40.00
2023-01-01T12:18:37.596Z,-40.00
2023-01-01T12:19:37.536Z,-40.00
2023-01-01T12:20:37.470Z,-40.00
2023-01-01T12:21:37.411Z,-40.00
2023-01-01T12:22:37.358Z,-40.00
2023-01-01T12:23:37.299Z,-40.00
2023-01-01T12:24:37.287Z,-40.00
2023-01-01T12:25:37.167Z,-40.00
2023-01-01T12:26:37.110Z,-40.00
2023-01-01T12:27:37.043Z,-40.00
2023-01-01T12:28:36.984Z,-40.00
2023-01-01T12:29:36.928Z,-40.00
2023-01-01T12:30:36.869Z,-40.00
2023-01-01T12:31:36.844Z,-40.00
2023-01-01T12:32:36.761Z,-40.00
2023-01-01T12:33:36.699Z,-40.00
2023-01-01T12:34:36.638Z,-40.00
2023-01-01T12:35:36.557Z,-40.00
2023-01-01T12:36:36.515Z,-40.00
2023-01-01T12:37:36.425Z,-40.00
2023-01-01T12:38:36.383Z,-40.00
2023-01-01T12:39:36.342Z,-40.00
2023-01-01T12:40:36.255Z,-40.00